Detall de PIREP

Printer-friendly versionPDF version

[2013/07/06 14:13:00]
Flight IATA:CT0002
Pilot Number:012
Company ICAO:CAT
Aircraft Type:B738/F
PAX:160
Departing Airport: LFMP
Destination Airport: LFMN
Alternate Airport:LFML
Online: VATSIM
Route:FJR UL127 ROVOT/N0250F200 UY373 ABLAK
Flight Level:F220
No Slew and time accel
No pause
Crash detect
Detect pilot in Cockpit between each 30 and 45 minutes
14:13 Zero fuel Weight: 123331 Lbs, Fuel Weight: 10952 Lbs
14:13 VATSIM:LFMP 061400Z 11011KT CAVOK 32/14 Q1020 NOSIG
14:13 VATSIM:LFMN 061400Z 14004KT 9999 FEW030 FEW040CB 27/20 Q1020 NOSIG
14:13 VOICE CATALONIAN
14:13 Parking Brakes off
14:16 Take-off
14:16 Take off Weight: 133828 Lbs
14:16 Wind: 110º @ 011 Knots Heading: 331º
14:16 POS N42º 45´ 12´´ E002º 51´ 44´´
14:16 Gear Up: 164 Knots
14:16 Flaps:3 at 164 Knots
14:17 Flaps:2 at 188 Knots
14:17 Flaps:1 at 195 Knots
14:17 Flaps:0 at 202 Knots
14:25 TOC
14:25 Fuel Weight: 8373 Lb
14:31 Wind:335º@024 Knots Heading: 106º Ground Speed: 449 Knots Altitude 22194 ft
14:39 TOD
14:39 Fuel Weight: 6886 Lb
14:46 Wind:333º@003 Knots Heading: 133º Ground Speed: 279 Knots Altitude 10170 ft
14:50 Flaps:1 at 229 Knots
14:50 Flaps:2 at 226 Knots
14:51 Flaps:3 at 194 Knots
14:51 Flaps:4 at 174 Knots
14:51 Gear Down: 174 Knots
14:51 Flaps:5 at 156 Knots
14:52 Flaps:6 at 148 Knots
14:52 Flaps:7 at 148 Knots
14:52 Flaps:8 at 128 Knots
14:56 TouchDown:Rate -58 ft/min Speed: 122 Knots
14:57 VATSIM:LFMN 061430Z 16003KT 9999 FEW030 FEW040CB BKN230 26/20 Q1020 NOSIG
14:57 Land
14:57 Wind:129º@003 Knots
14:57 Heading: 045º
14:57 Flight Duration: 00:41
14:57 Landing Weight: 129155 Lbs
14:57 POS N43º 39´ 37´´ E007º 12´ 58´´
14:59 Parking brakes on
14:59 Block to Block Duration: 00:46
14:59 Final Fuel: 5683 Lbls
14:59 Spent Fuel: 5268 Lbls
14:59 Flight Length: 227 NM
14:59 TOD Land Length: 77 NM

Exportar CSV

Powered by Drupal - Modified by Danger4k